sensor_id;sensor_type;location;lat;lon;timestamp;temperature;humidity
5192;DHT22;2615;44.524;11.284;2023-05-29T00:01:24;19.70;67.60
5192;DHT22;2615;44.524;11.284;2023-05-29T00:03:52;19.70;67.70
5192;DHT22;2615;44.524;11.284;2023-05-29T00:06:21;19.60;67.60
5192;DHT22;2615;44.524;11.284;2023-05-29T00:08:49;19.60;67.60
5192;DHT22;2615;44.524;11.284;2023-05-29T00:11:17;19.60;67.80
5192;DHT22;2615;44.524;11.284;2023-05-29T00:13:45;19.60;67.90
5192;DHT22;2615;44.524;11.284;2023-05-29T00:16:13;19.50;67.80
5192;DHT22;2615;44.524;11.284;2023-05-29T00:18:43;19.50;67.90
5192;DHT22;2615;44.524;11.284;2023-05-29T00:21:13;19.50;68.00
5192;DHT22;2615;44.524;11.284;2023-05-29T00:23:41;19.50;68.20
5192;DHT22;2615;44.524;11.284;2023-05-29T00:26:12;19.50;68.40
5192;DHT22;2615;44.524;11.284;2023-05-29T00:28:43;19.40;68.40
5192;DHT22;2615;44.524;11.284;2023-05-29T00:31:11;19.40;68.50
5192;DHT22;2615;44.524;11.284;2023-05-29T00:33:39;19.40;68.60
5192;DHT22;2615;44.524;11.284;2023-05-29T00:36:10;19.40;68.70
5192;DHT22;2615;44.524;11.284;2023-05-29T00:38:38;19.40;68.80
5192;DHT22;2615;44.524;11.284;2023-05-29T00:41:06;19.40;68.90
5192;DHT22;2615;44.524;11.284;2023-05-29T00:43:34;19.40;69.00
5192;DHT22;2615;44.524;11.284;2023-05-29T00:46:02;19.30;69.00
5192;DHT22;2615;44.524;11.284;2023-05-29T00:48:30;19.30;69.10
5192;DHT22;2615;44.524;11.284;2023-05-29T00:50:59;19.30;69.10
5192;DHT22;2615;44.524;11.284;2023-05-29T00:53:29;19.30;69.30
5192;DHT22;2615;44.524;11.284;2023-05-29T00:55:58;19.30;69.30
5192;DHT22;2615;44.524;11.284;2023-05-29T00:58:27;19.30;69.40
5192;DHT22;2615;44.524;11.284;2023-05-29T01:00:55;19.20;69.30
5192;DHT22;2615;44.524;11.284;2023-05-29T01:03:24;19.20;69.40
5192;DHT22;2615;44.524;11.284;2023-05-29T01:05:53;19.20;69.50
5192;DHT22;2615;44.524;11.284;2023-05-29T01:08:21;19.20;69.50
5192;DHT22;2615;44.524;11.284;2023-05-29T01:10:51;19.10;69.40
5192;DHT22;2615;44.524;11.284;2023-05-29T01:13:29;19.10;69.40
5192;DHT22;2615;44.524;11.284;2023-05-29T01:16:01;19.10;69.50
5192;DHT22;2615;44.524;11.284;2023-05-29T01:18:39;19.10;69.50
5192;DHT22;2615;44.524;11.284;2023-05-29T01:21:14;19.10;69.50
5192;DHT22;2615;44.524;11.284;2023-05-29T01:24:02;19.10;69.50
5192;DHT22;2615;44.524;11.284;2023-05-29T01:26:53;19.00;69.40
5192;DHT22;2615;44.524;11.284;2023-05-29T01:29:26;19.00;69.60
5192;DHT22;2615;44.524;11.284;2023-05-29T01:31:54;19.00;69.50
5192;DHT22;2615;44.524;11.284;2023-05-29T01:34:23;19.00;69.50
5192;DHT22;2615;44.524;11.284;2023-05-29T01:36:52;18.90;69.50
5192;DHT22;2615;44.524;11.284;2023-05-29T01:39:20;18.90;69.50
5192;DHT22;2615;44.524;11.284;2023-05-29T01:41:49;18.90;69.60
5192;DHT22;2615;44.524;11.284;2023-05-29T01:44:19;18.90;69.70
5192;DHT22;2615;44.524;11.284;2023-05-29T01:46:49;18.90;69.70
5192;DHT22;2615;44.524;11.284;2023-05-29T01:49:18;18.80;69.60
5192;DHT22;2615;44.524;11.284;2023-05-29T01:51:46;18.80;69.70
5192;DHT22;2615;44.524;11.284;2023-05-29T01:54:15;18.80;69.80
5192;DHT22;2615;44.524;11.284;2023-05-29T01:56:43;18.80;69.90
5192;DHT22;2615;44.524;11.284;2023-05-29T01:59:12;18.70;69.80
5192;DHT22;2615;44.524;11.284;2023-05-29T02:01:42;18.70;69.90
5192;DHT22;2615;44.524;11.284;2023-05-29T02:04:10;18.70;69.90
5192;DHT22;2615;44.524;11.284;2023-05-29T02:06:38;18.70;70.00
5192;DHT22;2615;44.524;11.284;2023-05-29T02:09:06;18.70;70.00
5192;DHT22;2615;44.524;11.284;2023-05-29T02:11:34;18.60;69.90
5192;DHT22;2615;44.524;11.284;2023-05-29T02:14:03;18.60;70.00
5192;DHT22;2615;44.524;11.284;2023-05-29T02:16:31;18.60;70.10
5192;DHT22;2615;44.524;11.284;2023-05-29T02:19:02;18.60;70.10
5192;DHT22;2615;44.524;11.284;2023-05-29T02:21:30;18.60;70.20
5192;DHT22;2615;44.524;11.284;2023-05-29T02:23:58;18.60;70.20
5192;DHT22;2615;44.524;11.284;2023-05-29T02:26:27;18.60;70.20
5192;DHT22;2615;44.524;11.284;2023-05-29T02:28:55;18.60;70.30
5192;DHT22;2615;44.524;11.284;2023-05-29T02:31:23;18.50;70.20
5192;DHT22;2615;44.524;11.284;2023-05-29T02:33:51;18.50;70.30
5192;DHT22;2615;44.524;11.284;2023-05-29T02:36:20;18.40;70.20
5192;DHT22;2615;44.524;11.284;2023-05-29T02:38:48;18.50;70.50
5192;DHT22;2615;44.524;11.284;2023-05-29T02:41:17;18.40;70.40
5192;DHT22;2615;44.524;11.284;2023-05-29T02:43:45;18.40;70.50
5192;DHT22;2615;44.524;11.284;2023-05-29T02:46:13;18.40;70.50
5192;DHT22;2615;44.524;11.284;2023-05-29T02:48:41;18.40;70.60
5192;DHT22;2615;44.524;11.284;2023-05-29T02:51:09;18.40;70.60
5192;DHT22;2615;44.524;11.284;2023-05-29T02:53:39;18.40;70.70
5192;DHT22;2615;44.524;11.284;2023-05-29T02:56:08;18.40;70.80
5192;DHT22;2615;44.524;11.284;2023-05-29T02:58:36;18.30;70.70
5192;DHT22;2615;44.524;11.284;2023-05-29T03:01:04;18.30;70.70
5192;DHT22;2615;44.524;11.284;2023-05-29T03:03:32;18.30;70.70
5192;DHT22;2615;44.524;11.284;2023-05-29T03:06:00;18.30;70.70
5192;DHT22;2615;44.524;11.284;2023-05-29T03:08:29;18.30;70.90
5192;DHT22;2615;44.524;11.284;2023-05-29T03:10:58;18.20;70.90
5192;DHT22;2615;44.524;11.284;2023-05-29T03:13:27;18.20;70.90
5192;DHT22;2615;44.524;11.284;2023-05-29T03:15:55;18.20;70.90
5192;DHT22;2615;44.524;11.284;2023-05-29T03:18:24;18.20;71.00
5192;DHT22;2615;44.524;11.284;2023-05-29T03:20:53;18.20;71.00
5192;DHT22;2615;44.524;11.284;2023-05-29T03:23:22;18.20;71.10
5192;DHT22;2615;44.524;11.284;2023-05-29T03:25:53;18.20;71.10
5192;DHT22;2615;44.524;11.284;2023-05-29T03:28:23;18.20;71.20
5192;DHT22;2615;44.524;11.284;2023-05-29T03:30:51;18.20;71.20
5192;DHT22;2615;44.524;11.284;2023-05-29T03:33:19;18.10;71.10
5192;DHT22;2615;44.524;11.284;2023-05-29T03:35:47;18.20;71.30
5192;DHT22;2615;44.524;11.284;2023-05-29T03:38:16;18.10;71.20
5192;DHT22;2615;44.524;11.284;2023-05-29T03:40:44;18.10;71.20
5192;DHT22;2615;44.524;11.284;2023-05-29T03:43:12;18.20;71.40
5192;DHT22;2615;44.524;11.284;2023-05-29T03:45:42;18.10;71.20
5192;DHT22;2615;44.524;11.284;2023-05-29T03:48:10;18.10;71.40
5192;DHT22;2615;44.524;11.284;2023-05-29T03:50:38;18.20;71.50
5192;DHT22;2615;44.524;11.284;2023-05-29T03:53:06;18.10;71.50
5192;DHT22;2615;44.524;11.284;2023-05-29T03:55:34;18.10;71.50
5192;DHT22;2615;44.524;11.284;2023-05-29T03:58:02;18.10;71.50
5192;DHT22;2615;44.524;11.284;2023-05-29T04:00:30;18.10;71.60
5192;DHT22;2615;44.524;11.284;2023-05-29T04:03:00;18.10;71.60
5192;DHT22;2615;44.524;11.284;2023-05-29T04:05:29;18.10;71.60
5192;DHT22;2615;44.524;11.284;2023-05-29T04:07:57;18.10;71.60
5192;DHT22;2615;44.524;11.284;2023-05-29T04:10:41;18.20;71.70
5192;DHT22;2615;44.524;11.284;2023-05-29T04:13:10;18.20;71.60
5192;DHT22;2615;44.524;11.284;2023-05-29T04:15:38;18.20;71.60
5192;DHT22;2615;44.524;11.284;2023-05-29T04:18:08;18.20;71.50
5192;DHT22;2615;44.524;11.284;2023-05-29T04:20:36;18.20;71.50
5192;DHT22;2615;44.524;11.284;2023-05-29T04:23:04;18.20;71.60
5192;DHT22;2615;44.524;11.284;2023-05-29T04:25:32;18.20;71.60
5192;DHT22;2615;44.524;11.284;2023-05-29T04:28:01;18.20;71.60
5192;DHT22;2615;44.524;11.284;2023-05-29T04:30:30;18.20;71.70
5192;DHT22;2615;44.524;11.284;2023-05-29T04:33:00;18.20;71.70
5192;DHT22;2615;44.524;11.284;2023-05-29T04:35:30;18.20;71.70
5192;DHT22;2615;44.524;11.284;2023-05-29T04:37:58;18.20;71.70
5192;DHT22;2615;44.524;11.284;2023-05-29T04:40:26;18.20;71.70
5192;DHT22;2615;44.524;11.284;2023-05-29T04:42:54;18.30;71.80
5192;DHT22;2615;44.524;11.284;2023-05-29T04:45:23;18.30;71.80
5192;DHT22;2615;44.524;11.284;2023-05-29T04:47:52;18.30;71.80
5192;DHT22;2615;44.524;11.284;2023-05-29T04:50:22;18.30;71.90
5192;DHT22;2615;44.524;11.284;2023-05-29T04:52:52;18.40;72.00
5192;DHT22;2615;44.524;11.284;2023-05-29T04:55:21;18.40;71.90
5192;DHT22;2615;44.524;11.284;2023-05-29T04:57:49;18.40;71.90
5192;DHT22;2615;44.524;11.284;2023-05-29T05:00:19;18.40;71.90
5192;DHT22;2615;44.524;11.284;2023-05-29T05:02:48;18.50;72.00
5192;DHT22;2615;44.524;11.284;2023-05-29T05:05:17;18.60;72.00
5192;DHT22;2615;44.524;11.284;2023-05-29T05:07:46;18.60;72.00
5192;DHT22;2615;44.524;11.284;2023-05-29T05:10:15;18.60;71.90
5192;DHT22;2615;44.524;11.284;2023-05-29T05:12:43;18.70;72.00
5192;DHT22;2615;44.524;11.284;2023-05-29T05:15:13;18.70;72.00
5192;DHT22;2615;44.524;11.284;2023-05-29T05:17:41;18.70;72.00
5192;DHT22;2615;44.524;11.284;2023-05-29T05:20:10;18.80;71.90
5192;DHT22;2615;44.524;11.284;2023-05-29T05:22:38;18.80;71.80
5192;DHT22;2615;44.524;11.284;2023-05-29T05:25:08;18.90;71.80
5192;DHT22;2615;44.524;11.284;2023-05-29T05:27:37;19.00;71.80
5192;DHT22;2615;44.524;11.284;2023-05-29T05:30:06;19.00;71.70
5192;DHT22;2615;44.524;11.284;2023-05-29T05:32:35;19.10;71.60
5192;DHT22;2615;44.524;11.284;2023-05-29T05:35:03;19.10;71.60
5192;DHT22;2615;44.524;11.284;2023-05-29T05:37:32;19.20;71.60
5192;DHT22;2615;44.524;11.284;2023-05-29T05:40:00;19.20;71.50
5192;DHT22;2615;44.524;11.284;2023-05-29T05:42:28;19.30;71.50
5192;DHT22;2615;44.524;11.284;2023-05-29T05:44:57;19.30;71.30
5192;DHT22;2615;44.524;11.284;2023-05-29T05:47:25;19.40;71.40
5192;DHT22;2615;44.524;11.284;2023-05-29T05:49:54;19.40;71.30
5192;DHT22;2615;44.524;11.284;2023-05-29T05:52:23;19.50;71.30
5192;DHT22;2615;44.524;11.284;2023-05-29T05:54:52;19.50;71.20
5192;DHT22;2615;44.524;11.284;2023-05-29T05:57:20;19.50;71.10
5192;DHT22;2615;44.524;11.284;2023-05-29T05:59:48;19.60;71.20
5192;DHT22;2615;44.524;11.284;2023-05-29T06:02:18;19.70;71.30
5192;DHT22;2615;44.524;11.284;2023-05-29T06:04:46;19.70;71.20
5192;DHT22;2615;44.524;11.284;2023-05-29T06:07:15;19.70;71.10
5192;DHT22;2615;44.524;11.284;2023-05-29T06:09:44;19.80;71.10
5192;DHT22;2615;44.524;11.284;2023-05-29T06:12:12;19.80;71.10
5192;DHT22;2615;44.524;11.284;2023-05-29T06:14:40;19.90;71.20
5192;DHT22;2615;44.524;11.284;2023-05-29T06:17:08;20.00;71.30
5192;DHT22;2615;44.524;11.284;2023-05-29T06:19:37;20.00;71.20
5192;DHT22;2615;44.524;11.284;2023-05-29T06:22:05;20.10;71.20
5192;DHT22;2615;44.524;11.284;2023-05-29T06:24:34;20.10;71.10
5192;DHT22;2615;44.524;11.284;2023-05-29T06:27:02;20.30;71.20
5192;DHT22;2615;44.524;11.284;2023-05-29T06:29:30;20.30;71.00
5192;DHT22;2615;44.524;11.284;2023-05-29T06:31:58;20.30;70.90
5192;DHT22;2615;44.524;11.284;2023-05-29T06:34:27;20.40;70.90
5192;DHT22;2615;44.524;11.284;2023-05-29T06:36:56;20.50;71.00
5192;DHT22;2615;44.524;11.284;2023-05-29T06:39:24;20.60;70.90
5192;DHT22;2615;44.524;11.284;2023-05-29T06:41:52;20.70;71.00
5192;DHT22;2615;44.524;11.284;2023-05-29T06:44:20;20.70;70.90
5192;DHT22;2615;44.524;11.284;2023-05-29T06:46:49;20.80;70.80
5192;DHT22;2615;44.524;11.284;2023-05-29T06:49:17;20.80;70.70
5192;DHT22;2615;44.524;11.284;2023-05-29T06:51:45;20.90;70.50
5192;DHT22;2615;44.524;11.284;2023-05-29T06:54:14;21.00;70.40
5192;DHT22;2615;44.524;11.284;2023-05-29T06:56:42;21.10;70.30
5192;DHT22;2615;44.524;11.284;2023-05-29T06:59:21;21.10;70.10
5192;DHT22;2615;44.524;11.284;2023-05-29T07:01:49;21.20;70.00
5192;DHT22;2615;44.524;11.284;2023-05-29T07:04:17;21.30;70.00
5192;DHT22;2615;44.524;11.284;2023-05-29T07:06:45;21.40;69.80
5192;DHT22;2615;44.524;11.284;2023-05-29T07:09:14;21.50;69.90
5192;DHT22;2615;44.524;11.284;2023-05-29T07:11:42;21.60;69.90
5192;DHT22;2615;44.524;11.284;2023-05-29T07:14:11;21.60;69.80
5192;DHT22;2615;44.524;11.284;2023-05-29T07:16:39;21.80;69.80
5192;DHT22;2615;44.524;11.284;2023-05-29T07:19:07;21.90;69.80
5192;DHT22;2615;44.524;11.284;2023-05-29T07:21:47;21.90;69.60
5192;DHT22;2615;44.524;11.284;2023-05-29T07:24:17;22.00;69.40
5192;DHT22;2615;44.524;11.284;2023-05-29T07:26:45;22.10;70.00
5192;DHT22;2615;44.524;11.284;2023-05-29T07:29:13;22.10;69.10
5192;DHT22;2615;44.524;11.284;2023-05-29T07:31:43;22.20;68.90
5192;DHT22;2615;44.524;11.284;2023-05-29T07:34:11;22.30;68.90
5192;DHT22;2615;44.524;11.284;2023-05-29T07:36:56;22.40;68.80
5192;DHT22;2615;44.524;11.284;2023-05-29T07:39:26;22.50;68.80
5192;DHT22;2615;44.524;11.284;2023-05-29T07:41:54;22.50;68.80
5192;DHT22;2615;44.524;11.284;2023-05-29T07:44:23;22.60;68.80
5192;DHT22;2615;44.524;11.284;2023-05-29T07:46:51;22.70;68.80
5192;DHT22;2615;44.524;11.284;2023-05-29T07:49:20;22.80;68.70
5192;DHT22;2615;44.524;11.284;2023-05-29T07:51:48;22.90;68.70
5192;DHT22;2615;44.524;11.284;2023-05-29T07:54:16;23.00;68.70
5192;DHT22;2615;44.524;11.284;2023-05-29T07:56:48;23.10;68.60
5192;DHT22;2615;44.524;11.284;2023-05-29T07:59:17;23.20;68.50
5192;DHT22;2615;44.524;11.284;2023-05-29T08:01:45;23.30;68.40
5192;DHT22;2615;44.524;11.284;2023-05-29T08:04:14;23.30;68.20
5192;DHT22;2615;44.524;11.284;2023-05-29T08:06:42;23.40;68.00
5192;DHT22;2615;44.524;11.284;2023-05-29T08:09:11;23.40;67.80
5192;DHT22;2615;44.524;11.284;2023-05-29T08:11:39;23.50;67.80
5192;DHT22;2615;44.524;11.284;2023-05-29T08:14:09;23.50;67.60
5192;DHT22;2615;44.524;11.284;2023-05-29T08:16:37;23.50;67.50
5192;DHT22;2615;44.524;11.284;2023-05-29T08:19:06;23.60;67.30
5192;DHT22;2615;44.524;11.284;2023-05-29T08:21:34;23.70;67.30
5192;DHT22;2615;44.524;11.284;2023-05-29T08:24:04;23.70;67.30
5192;DHT22;2615;44.524;11.284;2023-05-29T08:26:33;23.90;67.40
5192;DHT22;2615;44.524;11.284;2023-05-29T08:29:01;24.00;67.20
5192;DHT22;2615;44.524;11.284;2023-05-29T08:31:31;24.10;67.10
5192;DHT22;2615;44.524;11.284;2023-05-29T08:33:59;24.10;66.80
5192;DHT22;2615;44.524;11.284;2023-05-29T08:36:27;24.20;66.70
5192;DHT22;2615;44.524;11.284;2023-05-29T08:38:55;24.20;66.30
5192;DHT22;2615;44.524;11.284;2023-05-29T08:41:28;24.30;66.20
5192;DHT22;2615;44.524;11.284;2023-05-29T08:43:56;24.40;66.30
5192;DHT22;2615;44.524;11.284;2023-05-29T08:46:27;24.50;66.00
5192;DHT22;2615;44.524;11.284;2023-05-29T08:48:58;24.60;65.70
5192;DHT22;2615;44.524;11.284;2023-05-29T08:51:32;24.70;65.60
5192;DHT22;2615;44.524;11.284;2023-05-29T08:54:01;24.70;65.50
5192;DHT22;2615;44.524;11.284;2023-05-29T08:56:30;24.80;65.40
5192;DHT22;2615;44.524;11.284;2023-05-29T08:59:01;24.90;65.30
5192;DHT22;2615;44.524;11.284;2023-05-29T09:01:34;25.00;65.00
5192;DHT22;2615;44.524;11.284;2023-05-29T09:04:04;25.00;64.60
5192;DHT22;2615;44.524;11.284;2023-05-29T09:06:33;25.10;64.40
5192;DHT22;2615;44.524;11.284;2023-05-29T09:09:01;25.20;64.30
5192;DHT22;2615;44.524;11.284;2023-05-29T09:11:31;25.30;64.40
5192;DHT22;2615;44.524;11.284;2023-05-29T09:13:59;25.50;64.30
5192;DHT22;2615;44.524;11.284;2023-05-29T09:16:29;25.60;63.90
5192;DHT22;2615;44.524;11.284;2023-05-29T09:19:06;25.80;63.70
5192;DHT22;2615;44.524;11.284;2023-05-29T09:21:34;25.80;63.30
5192;DHT22;2615;44.524;11.284;2023-05-29T09:24:03;26.00;63.20
5192;DHT22;2615;44.524;11.284;2023-05-29T09:26:32;26.20;62.80
5192;DHT22;2615;44.524;11.284;2023-05-29T09:29:02;26.30;62.30
5192;DHT22;2615;44.524;11.284;2023-05-29T09:31:31;26.30;61.70
5192;DHT22;2615;44.524;11.284;2023-05-29T09:34:02;26.40;61.30
5192;DHT22;2615;44.524;11.284;2023-05-29T09:36:32;26.30;60.80
5192;DHT22;2615;44.524;11.284;2023-05-29T09:39:02;26.30;60.70
5192;DHT22;2615;44.524;11.284;2023-05-29T09:41:43;26.20;60.40
5192;DHT22;2615;44.524;11.284;2023-05-29T09:44:15;26.20;60.40
5192;DHT22;2615;44.524;11.284;2023-05-29T09:46:43;26.40;60.10
5192;DHT22;2615;44.524;11.284;2023-05-29T09:49:12;26.50;59.80
5192;DHT22;2615;44.524;11.284;2023-05-29T09:51:42;26.70;59.80
5192;DHT22;2615;44.524;11.284;2023-05-29T09:54:18;26.90;59.30
5192;DHT22;2615;44.524;11.284;2023-05-29T09:56:47;26.90;58.80
5192;DHT22;2615;44.524;11.284;2023-05-29T09:59:15;26.80;58.50
5192;DHT22;2615;44.524;11.284;2023-05-29T10:01:47;26.70;58.30
5192;DHT22;2615;44.524;11.284;2023-05-29T10:04:16;26.70;58.40
5192;DHT22;2615;44.524;11.284;2023-05-29T10:06:46;26.60;58.60
5192;DHT22;2615;44.524;11.284;2023-05-29T10:09:18;26.70;58.60
5192;DHT22;2615;44.524;11.284;2023-05-29T10:11:48;26.90;58.30
5192;DHT22;2615;44.524;11.284;2023-05-29T10:14:19;27.10;57.90
5192;DHT22;2615;44.524;11.284;2023-05-29T10:16:49;27.30;57.60
5192;DHT22;2615;44.524;11.284;2023-05-29T10:19:24;27.50;57.10
5192;DHT22;2615;44.524;11.284;2023-05-29T10:21:54;27.70;57.00
5192;DHT22;2615;44.524;11.284;2023-05-29T10:24:24;27.90;56.90
5192;DHT22;2615;44.524;11.284;2023-05-29T10:26:55;28.10;56.30
5192;DHT22;2615;44.524;11.284;2023-05-29T10:29:28;28.30;55.80
5192;DHT22;2615;44.524;11.284;2023-05-29T10:32:07;28.50;55.40
5192;DHT22;2615;44.524;11.284;2023-05-29T10:34:45;28.70;54.90
5192;DHT22;2615;44.524;11.284;2023-05-29T10:37:29;29.00;54.80
5192;DHT22;2615;44.524;11.284;2023-05-29T10:40:06;29.20;54.20
5192;DHT22;2615;44.524;11.284;2023-05-29T10:42:44;29.40;53.80
5192;DHT22;2615;44.524;11.284;2023-05-29T10:45:47;29.50;53.20
5192;DHT22;2615;44.524;11.284;2023-05-29T10:48:38;29.50;52.20
5192;DHT22;2615;44.524;11.284;2023-05-29T10:51:08;29.60;51.80
5192;DHT22;2615;44.524;11.284;2023-05-29T10:53:52;29.70;51.90
5192;DHT22;2615;44.524;11.284;2023-05-29T10:56:23;29.70;51.60
5192;DHT22;2615;44.524;11.284;2023-05-29T10:58:54;29.90;51.40
5192;DHT22;2615;44.524;11.284;2023-05-29T11:01:23;30.00;51.10
5192;DHT22;2615;44.524;11.284;2023-05-29T11:03:54;30.10;50.90
5192;DHT22;2615;44.524;11.284;2023-05-29T11:06:43;30.20;50.40
5192;DHT22;2615;44.524;11.284;2023-05-29T11:09:29;30.40;50.10
5192;DHT22;2615;44.524;11.284;2023-05-29T11:12:16;30.50;49.70
5192;DHT22;2615;44.524;11.284;2023-05-29T11:14:56;30.60;49.20
5192;DHT22;2615;44.524;11.284;2023-05-29T11:17:32;30.80;49.00
5192;DHT22;2615;44.524;11.284;2023-05-29T11:20:05;30.80;48.20
5192;DHT22;2615;44.524;11.284;2023-05-29T11:22:51;30.80;47.90
5192;DHT22;2615;44.524;11.284;2023-05-29T11:25:23;30.90;47.40
5192;DHT22;2615;44.524;11.284;2023-05-29T11:27:51;31.00;47.40
5192;DHT22;2615;44.524;11.284;2023-05-29T11:30:20;31.10;47.20
5192;DHT22;2615;44.524;11.284;2023-05-29T11:32:48;31.10;47.00
5192;DHT22;2615;44.524;11.284;2023-05-29T11:35:21;31.00;47.20
5192;DHT22;2615;44.524;11.284;2023-05-29T11:37:50;30.90;47.50
5192;DHT22;2615;44.524;11.284;2023-05-29T11:40:18;30.80;47.70
5192;DHT22;2615;44.524;11.284;2023-05-29T11:42:48;30.80;47.50
5192;DHT22;2615;44.524;11.284;2023-05-29T11:45:17;31.00;47.50
5192;DHT22;2615;44.524;11.284;2023-05-29T11:47:54;31.20;47.50
5192;DHT22;2615;44.524;11.284;2023-05-29T11:50:23;31.30;46.80
5192;DHT22;2615;44.524;11.284;2023-05-29T11:52:52;31.10;46.50
5192;DHT22;2615;44.524;11.284;2023-05-29T11:55:21;31.00;46.50
5192;DHT22;2615;44.524;11.284;2023-05-29T11:57:55;31.00;46.20
5192;DHT22;2615;44.524;11.284;2023-05-29T12:00:24;30.90;46.00
5192;DHT22;2615;44.524;11.284;2023-05-29T12:02:52;30.70;46.00
5192;DHT22;2615;44.524;11.284;2023-05-29T12:05:20;30.60;45.90
5192;DHT22;2615;44.524;11.284;2023-05-29T12:07:50;30.40;45.80
5192;DHT22;2615;44.524;11.284;2023-05-29T12:10:20;30.30;45.80
5192;DHT22;2615;44.524;11.284;2023-05-29T12:12:51;30.10;45.70
5192;DHT22;2615;44.524;11.284;2023-05-29T12:15:20;29.90;45.70
5192;DHT22;2615;44.524;11.284;2023-05-29T12:17:49;29.80;46.10
5192;DHT22;2615;44.524;11.284;2023-05-29T12:20:18;29.80;46.40
5192;DHT22;2615;44.524;11.284;2023-05-29T12:22:47;30.00;46.10
5192;DHT22;2615;44.524;11.284;2023-05-29T12:25:16;30.20;45.70
5192;DHT22;2615;44.524;11.284;2023-05-29T12:27:45;30.40;45.60
5192;DHT22;2615;44.524;11.284;2023-05-29T12:30:20;30.50;45.40
5192;DHT22;2615;44.524;11.284;2023-05-29T12:32:59;30.60;45.10
5192;DHT22;2615;44.524;11.284;2023-05-29T12:35:29;30.60;45.20
5192;DHT22;2615;44.524;11.284;2023-05-29T12:37:59;30.50;45.10
5192;DHT22;2615;44.524;11.284;2023-05-29T12:40:29;30.30;45.20
5192;DHT22;2615;44.524;11.284;2023-05-29T12:42:59;30.20;45.50
5192;DHT22;2615;44.524;11.284;2023-05-29T12:45:29;30.10;45.50
5192;DHT22;2615;44.524;11.284;2023-05-29T12:47:59;30.00;45.80
5192;DHT22;2615;44.524;11.284;2023-05-29T12:50:30;29.90;46.00
5192;DHT22;2615;44.524;11.284;2023-05-29T12:53:01;29.80;45.80
5192;DHT22;2615;44.524;11.284;2023-05-29T12:55:31;29.60;45.60
5192;DHT22;2615;44.524;11.284;2023-05-29T12:58:04;29.50;45.70
5192;DHT22;2615;44.524;11.284;2023-05-29T13:00:33;29.30;45.80
5192;DHT22;2615;44.524;11.284;2023-05-29T13:03:02;29.20;46.00
5192;DHT22;2615;44.524;11.284;2023-05-29T13:05:31;29.10;46.10
5192;DHT22;2615;44.524;11.284;2023-05-29T13:07:59;29.00;46.00
5192;DHT22;2615;44.524;11.284;2023-05-29T13:10:28;29.00;46.20
5192;DHT22;2615;44.524;11.284;2023-05-29T13:12:57;28.90;46.20
5192;DHT22;2615;44.524;11.284;2023-05-29T13:15:26;28.90;46.20
5192;DHT22;2615;44.524;11.284;2023-05-29T13:17:56;28.80;46.20
5192;DHT22;2615;44.524;11.284;2023-05-29T13:20:24;28.70;46.30
5192;DHT22;2615;44.524;11.284;2023-05-29T13:22:52;28.50;46.50
5192;DHT22;2615;44.524;11.284;2023-05-29T13:25:21;28.40;46.70
5192;DHT22;2615;44.524;11.284;2023-05-29T13:27:51;28.30;46.70
5192;DHT22;2615;44.524;11.284;2023-05-29T13:30:20;28.30;46.70
5192;DHT22;2615;44.524;11.284;2023-05-29T13:32:50;28.30;46.70
5192;DHT22;2615;44.524;11.284;2023-05-29T13:35:20;28.30;46.60
5192;DHT22;2615;44.524;11.284;2023-05-29T13:37:48;28.30;46.60
5192;DHT22;2615;44.524;11.284;2023-05-29T13:40:17;28.30;46.70
5192;DHT22;2615;44.524;11.284;2023-05-29T13:42:45;28.30;46.70
5192;DHT22;2615;44.524;11.284;2023-05-29T13:45:13;28.20;46.40
5192;DHT22;2615;44.524;11.284;2023-05-29T13:47:41;28.20;46.30
5192;DHT22;2615;44.524;11.284;2023-05-29T13:50:09;28.10;46.30
5192;DHT22;2615;44.524;11.284;2023-05-29T13:52:39;28.10;46.70
5192;DHT22;2615;44.524;11.284;2023-05-29T13:55:08;28.00;46.70
5192;DHT22;2615;44.524;11.284;2023-05-29T13:57:36;28.00;46.60
5192;DHT22;2615;44.524;11.284;2023-05-29T14:00:05;28.00;46.70
5192;DHT22;2615;44.524;11.284;2023-05-29T14:02:34;28.00;46.70
5192;DHT22;2615;44.524;11.284;2023-05-29T14:05:03;28.00;46.80
5192;DHT22;2615;44.524;11.284;2023-05-29T14:07:32;28.00;46.70
5192;DHT22;2615;44.524;11.284;2023-05-29T14:10:02;28.00;46.70
5192;DHT22;2615;44.524;11.284;2023-05-29T14:12:30;28.00;46.70
5192;DHT22;2615;44.524;11.284;2023-05-29T14:14:59;27.90;46.60
5192;DHT22;2615;44.524;11.284;2023-05-29T14:17:27;27.90;46.50
5192;DHT22;2615;44.524;11.284;2023-05-29T14:19:55;27.80;46.50
5192;DHT22;2615;44.524;11.284;2023-05-29T14:22:23;27.70;46.60
5192;DHT22;2615;44.524;11.284;2023-05-29T14:24:51;27.60;46.90
5192;DHT22;2615;44.524;11.284;2023-05-29T14:27:21;27.60;47.20
5192;DHT22;2615;44.524;11.284;2023-05-29T14:29:49;27.60;47.30
5192;DHT22;2615;44.524;11.284;2023-05-29T14:32:17;27.60;47.20
5192;DHT22;2615;44.524;11.284;2023-05-29T14:34:46;27.50;47.10
5192;DHT22;2615;44.524;11.284;2023-05-29T14:37:14;27.40;47.00
5192;DHT22;2615;44.524;11.284;2023-05-29T14:39:42;27.40;47.10
5192;DHT22;2615;44.524;11.284;2023-05-29T14:42:10;27.40;47.10
5192;DHT22;2615;44.524;11.284;2023-05-29T14:44:40;27.40;47.10
5192;DHT22;2615;44.524;11.284;2023-05-29T14:47:08;27.40;47.20
5192;DHT22;2615;44.524;11.284;2023-05-29T14:49:37;27.30;47.20
5192;DHT22;2615;44.524;11.284;2023-05-29T14:52:05;27.30;47.20
5192;DHT22;2615;44.524;11.284;2023-05-29T14:54:33;27.30;47.20
5192;DHT22;2615;44.524;11.284;2023-05-29T14:57:01;27.20;47.10
5192;DHT22;2615;44.524;11.284;2023-05-29T14:59:29;27.20;47.10
5192;DHT22;2615;44.524;11.284;2023-05-29T15:01:59;27.20;47.00
5192;DHT22;2615;44.524;11.284;2023-05-29T15:04:27;27.20;46.90
5192;DHT22;2615;44.524;11.284;2023-05-29T15:06:55;27.20;46.90
5192;DHT22;2615;44.524;11.284;2023-05-29T15:09:32;27.20;46.90
5192;DHT22;2615;44.524;11.284;2023-05-29T15:12:01;27.30;47.00
5192;DHT22;2615;44.524;11.284;2023-05-29T15:14:29;27.20;46.90
5192;DHT22;2615;44.524;11.284;2023-05-29T15:16:59;27.20;46.90
5192;DHT22;2615;44.524;11.284;2023-05-29T15:19:28;27.20;46.90
5192;DHT22;2615;44.524;11.284;2023-05-29T15:21:57;27.20;47.00
5192;DHT22;2615;44.524;11.284;2023-05-29T15:24:25;27.20;47.10
5192;DHT22;2615;44.524;11.284;2023-05-29T15:26:53;27.20;47.10
5192;DHT22;2615;44.524;11.284;2023-05-29T15:29:23;27.20;47.00
5192;DHT22;2615;44.524;11.284;2023-05-29T15:31:51;27.20;47.00
5192;DHT22;2615;44.524;11.284;2023-05-29T15:34:21;27.10;47.10
5192;DHT22;2615;44.524;11.284;2023-05-29T15:36:49;27.10;47.20
5192;DHT22;2615;44.524;11.284;2023-05-29T15:39:17;27.10;47.20
5192;DHT22;2615;44.524;11.284;2023-05-29T15:41:45;27.10;47.20
5192;DHT22;2615;44.524;11.284;2023-05-29T15:44:13;27.10;47.40
5192;DHT22;2615;44.524;11.284;2023-05-29T15:46:42;27.10;47.50
5192;DHT22;2615;44.524;11.284;2023-05-29T15:49:10;27.10;47.60
5192;DHT22;2615;44.524;11.284;2023-05-29T15:51:39;27.10;47.70
5192;DHT22;2615;44.524;11.284;2023-05-29T15:54:09;27.10;47.80
5192;DHT22;2615;44.524;11.284;2023-05-29T15:56:37;27.10;47.80
5192;DHT22;2615;44.524;11.284;2023-05-29T15:59:05;27.00;47.80
5192;DHT22;2615;44.524;11.284;2023-05-29T16:01:34;27.10;48.00